SAS121 ENBR-ESSA
Flight info
| Callsign | SAS121 |
|---|---|
| Flight time | N/A |
| Altitude | 39000 |
| Route | GOKAB DCT MASEV DCT ELTOK |
| Aircraft | A20N/M-SDE2E3FGHIRWXY/LB1 |
Departure
| Time | 2026-04-27 17:00 |
|---|---|
| Airport | Bergen Airport, Flesland (ENBR) |
Arrival
| Time | N/A |
|---|---|
| Airport | Stockholm-Arlanda Airport (ESSA) |
| Time | Latitude | Longitude | Altitude | Speed | Heading |
|---|---|---|---|---|---|
| 2026-04-27 16:27 | 60.28993 | 5.22720 | 174 ft | 0 kts | 182° |
| 2026-04-27 16:42 | 60.28994 | 5.22720 | 174 ft | 1 kts | 182° |
| 2026-04-27 16:42 | 60.29017 | 5.22722 | 176 ft | 3 kts | 182° |
| 2026-04-27 16:42 | 60.29042 | 5.22724 | 175 ft | 4 kts | 182° |
| 2026-04-27 16:43 | 60.29060 | 5.22725 | 174 ft | 0 kts | 182° |
| 2026-04-27 16:43 | 60.29057 | 5.22725 | 174 ft | 1 kts | 182° |
| 2026-04-27 16:47 | 60.29056 | 5.22724 | 174 ft | 1 kts | 187° |
| 2026-04-27 16:47 | 60.29047 | 5.22693 | 174 ft | 4 kts | 263° |
| 2026-04-27 16:47 | 60.29041 | 5.22593 | 174 ft | 10 kts | 262° |
| 2026-04-27 16:48 | 60.29028 | 5.22436 | 174 ft | 13 kts | 249° |
| 2026-04-27 16:48 | 60.28950 | 5.22391 | 174 ft | 14 kts | 169° |
| 2026-04-27 16:48 | 60.28842 | 5.22429 | 174 ft | 18 kts | 171° |
| 2026-04-27 16:49 | 60.28557 | 5.22520 | 174 ft | 24 kts | 170° |
| 2026-04-27 16:49 | 60.28416 | 5.22568 | 176 ft | 0 kts | 171° |
| 2026-04-27 16:49 | 60.28399 | 5.22573 | 176 ft | 2 kts | 171° |
| 2026-04-27 16:49 | 60.28384 | 5.22578 | 177 ft | 0 kts | 171° |
| 2026-04-27 16:50 | 60.28371 | 5.22583 | 177 ft | 0 kts | 169° |
| 2026-04-27 16:50 | 60.28370 | 5.22583 | 177 ft | 0 kts | 169° |
| 2026-04-27 16:50 | 60.28369 | 5.22583 | 177 ft | 0 kts | 169° |
| 2026-04-27 16:50 | 60.28346 | 5.22591 | 178 ft | 9 kts | 173° |
| 2026-04-27 16:51 | 60.28300 | 5.22541 | 181 ft | 7 kts | 235° |
| 2026-04-27 16:51 | 60.28248 | 5.22506 | 181 ft | 10 kts | 175° |
| 2026-04-27 16:51 | 60.28169 | 5.22529 | 180 ft | 12 kts | 173° |
| 2026-04-27 16:51 | 60.28139 | 5.22537 | 180 ft | 0 kts | 173° |
| 2026-04-27 16:52 | 60.28135 | 5.22538 | 181 ft | 2 kts | 173° |
| 2026-04-27 16:52 | 60.28129 | 5.22539 | 181 ft | 0 kts | 173° |
| 2026-04-27 16:53 | 60.28128 | 5.22540 | 181 ft | 1 kts | 173° |
| 2026-04-27 16:53 | 60.28111 | 5.22544 | 181 ft | 4 kts | 173° |
| 2026-04-27 16:53 | 60.28085 | 5.22542 | 183 ft | 4 kts | 190° |
| 2026-04-27 16:53 | 60.28071 | 5.22524 | 184 ft | 0 kts | 224° |
| 2026-04-27 16:56 | 60.28070 | 5.22523 | 184 ft | 1 kts | 225° |
| 2026-04-27 16:56 | 60.28058 | 5.22488 | 184 ft | 5 kts | 246° |
| 2026-04-27 16:57 | 60.28054 | 5.22447 | 184 ft | 0 kts | 260° |
| 2026-04-27 16:57 | 60.28054 | 5.22441 | 184 ft | 0 kts | 260° |
| 2026-04-27 16:58 | 60.28054 | 5.22439 | 184 ft | 1 kts | 260° |
| 2026-04-27 16:58 | 60.28051 | 5.22412 | 184 ft | 4 kts | 260° |
| 2026-04-27 16:58 | 60.28047 | 5.22361 | 184 ft | 7 kts | 265° |
| 2026-04-27 16:58 | 60.28057 | 5.22258 | 185 ft | 8 kts | 298° |
| 2026-04-27 16:59 | 60.28113 | 5.22226 | 184 ft | 15 kts | 352° |
| 2026-04-27 16:59 | 60.28464 | 5.22106 | 180 ft | 86 kts | 351° |
| 2026-04-27 16:59 | 60.29247 | 5.21846 | 184 ft | 138 kts | 349° |
| 2026-04-27 16:59 | 60.30259 | 5.21466 | 461 ft | 157 kts | 346° |
| 2026-04-27 17:00 | 60.32164 | 5.20754 | 1280 ft | 180 kts | 351° |
| 2026-04-27 17:00 | 60.33975 | 5.20230 | 1810 ft | 210 kts | 352° |
| 2026-04-27 17:00 | 60.35499 | 5.19775 | 2314 ft | 234 kts | 351° |
| 2026-04-27 17:01 | 60.37182 | 5.19844 | 2911 ft | 253 kts | 17° |
| 2026-04-27 17:01 | 60.38701 | 5.21667 | 3895 ft | 257 kts | 47° |
| 2026-04-27 17:01 | 60.39600 | 5.24766 | 4981 ft | 258 kts | 75° |
| 2026-04-27 17:01 | 60.39789 | 5.28395 | 5973 ft | 264 kts | 90° |
| 2026-04-27 17:02 | 60.39713 | 5.32163 | 6950 ft | 270 kts | 91° |
| 2026-04-27 17:02 | 60.39649 | 5.35938 | 7929 ft | 274 kts | 89° |
| 2026-04-27 17:02 | 60.39671 | 5.39826 | 8876 ft | 279 kts | 86° |
| 2026-04-27 17:02 | 60.39775 | 5.43775 | 9835 ft | 284 kts | 84° |
| 2026-04-27 17:03 | 60.39921 | 5.47827 | 10579 ft | 297 kts | 84° |
| 2026-04-27 17:03 | 60.40094 | 5.52158 | 10986 ft | 321 kts | 83° |
| 2026-04-27 17:03 | 60.40281 | 5.56797 | 11506 ft | 337 kts | 84° |
| 2026-04-27 17:03 | 60.40465 | 5.61545 | 12365 ft | 341 kts | 84° |
| 2026-04-27 17:04 | 60.40648 | 5.66365 | 13209 ft | 346 kts | 84° |
| 2026-04-27 17:04 | 60.40830 | 5.71240 | 14019 ft | 350 kts | 84° |
| 2026-04-27 17:04 | 60.41014 | 5.76188 | 14765 ft | 355 kts | 84° |
| 2026-04-27 17:04 | 60.41199 | 5.81211 | 15518 ft | 360 kts | 84° |
| 2026-04-27 17:05 | 60.41384 | 5.86295 | 16236 ft | 365 kts | 84° |
| 2026-04-27 17:05 | 60.41570 | 5.91450 | 16926 ft | 370 kts | 84° |
| 2026-04-27 17:05 | 60.41755 | 5.96674 | 17600 ft | 374 kts | 84° |
| 2026-04-27 17:05 | 60.41942 | 6.01966 | 18247 ft | 379 kts | 84° |
| 2026-04-27 17:06 | 60.42127 | 6.07314 | 18948 ft | 383 kts | 83° |
| 2026-04-27 17:06 | 60.42311 | 6.12712 | 19610 ft | 386 kts | 83° |
| 2026-04-27 17:06 | 60.42495 | 6.18154 | 20258 ft | 389 kts | 83° |
| 2026-04-27 17:06 | 60.42679 | 6.23648 | 20885 ft | 393 kts | 83° |
| 2026-04-27 17:07 | 60.42861 | 6.29184 | 21470 ft | 397 kts | 83° |
| 2026-04-27 17:07 | 60.43043 | 6.34777 | 22061 ft | 400 kts | 83° |
| 2026-04-27 17:07 | 60.43226 | 6.40416 | 22623 ft | 404 kts | 83° |
| 2026-04-27 17:07 | 60.43307 | 6.46136 | 23139 ft | 409 kts | 89° |
| 2026-04-27 17:08 | 60.43179 | 6.51917 | 23680 ft | 413 kts | 89° |
| 2026-04-27 17:08 | 60.43055 | 6.57747 | 24230 ft | 415 kts | 89° |
| 2026-04-27 17:08 | 60.42938 | 6.63608 | 24758 ft | 418 kts | 89° |
| 2026-04-27 17:08 | 60.42823 | 6.69435 | 25251 ft | 421 kts | 89° |
| 2026-04-27 17:09 | 60.42704 | 6.75382 | 25712 ft | 425 kts | 89° |
| 2026-04-27 17:09 | 60.42580 | 6.81391 | 26118 ft | 430 kts | 89° |
| 2026-04-27 17:09 | 60.42449 | 6.87455 | 26579 ft | 432 kts | 89° |
| 2026-04-27 17:09 | 60.42317 | 6.93469 | 27019 ft | 435 kts | 89° |
| 2026-04-27 17:10 | 60.42178 | 6.99682 | 27431 ft | 438 kts | 89° |
| 2026-04-27 17:10 | 60.42035 | 7.05849 | 27823 ft | 440 kts | 89° |
| 2026-04-27 17:10 | 60.41888 | 7.12061 | 28194 ft | 443 kts | 89° |
| 2026-04-27 17:10 | 60.41737 | 7.18310 | 28565 ft | 446 kts | 89° |
| 2026-04-27 17:11 | 60.41583 | 7.24596 | 28926 ft | 448 kts | 89° |
| 2026-04-27 17:11 | 60.41260 | 7.37271 | 29565 ft | 454 kts | 89° |
| 2026-04-27 17:11 | 60.41093 | 7.43662 | 29904 ft | 456 kts | 89° |
| 2026-04-27 17:12 | 60.40746 | 7.56592 | 30530 ft | 461 kts | 89° |
| 2026-04-27 17:12 | 60.40565 | 7.63126 | 30965 ft | 460 kts | 89° |
| 2026-04-27 17:12 | 60.40383 | 7.69571 | 31399 ft | 459 kts | 89° |
| 2026-04-27 17:13 | 60.40199 | 7.76013 | 31809 ft | 458 kts | 89° |
| 2026-04-27 17:13 | 60.40011 | 7.82446 | 32200 ft | 457 kts | 89° |
| 2026-04-27 17:13 | 60.39822 | 7.88851 | 32577 ft | 456 kts | 89° |
| 2026-04-27 17:13 | 60.39630 | 7.95247 | 32948 ft | 455 kts | 89° |
| 2026-04-27 17:14 | 60.39436 | 8.01640 | 33299 ft | 455 kts | 89° |
| 2026-04-27 17:14 | 60.39238 | 8.08029 | 33589 ft | 455 kts | 89° |
| 2026-04-27 17:14 | 60.39038 | 8.14428 | 33810 ft | 457 kts | 90° |
| 2026-04-27 17:14 | 60.38833 | 8.20852 | 34073 ft | 458 kts | 90° |
| 2026-04-27 17:15 | 60.38625 | 8.27271 | 34352 ft | 458 kts | 90° |
| 2026-04-27 17:15 | 60.38413 | 8.33707 | 34615 ft | 459 kts | 90° |
| 2026-04-27 17:15 | 60.38198 | 8.40149 | 34875 ft | 459 kts | 90° |
| 2026-04-27 17:15 | 60.37980 | 8.46597 | 35125 ft | 460 kts | 90° |
| 2026-04-27 17:16 | 60.37758 | 8.53048 | 35371 ft | 460 kts | 90° |
| 2026-04-27 17:16 | 60.37533 | 8.59509 | 35611 ft | 461 kts | 90° |
| 2026-04-27 17:16 | 60.37305 | 8.65964 | 35841 ft | 461 kts | 90° |
| 2026-04-27 17:16 | 60.37073 | 8.72436 | 36066 ft | 462 kts | 90° |
| 2026-04-27 17:17 | 60.36839 | 8.78903 | 36261 ft | 463 kts | 90° |
| 2026-04-27 17:17 | 60.36600 | 8.85397 | 36413 ft | 464 kts | 90° |
| 2026-04-27 17:17 | 60.36358 | 8.91896 | 36618 ft | 464 kts | 90° |
| 2026-04-27 17:18 | 60.35866 | 9.04828 | 36996 ft | 465 kts | 90° |
| 2026-04-27 17:18 | 60.35610 | 9.11422 | 37170 ft | 465 kts | 90° |
| 2026-04-27 17:18 | 60.35354 | 9.17930 | 37340 ft | 465 kts | 91° |
| 2026-04-27 17:18 | 60.35099 | 9.24353 | 37498 ft | 465 kts | 91° |
| 2026-04-27 17:19 | 60.34836 | 9.30868 | 37663 ft | 465 kts | 91° |
| 2026-04-27 17:19 | 60.34571 | 9.37379 | 37838 ft | 465 kts | 91° |
| 2026-04-27 17:19 | 60.34031 | 9.50424 | 37873 ft | 469 kts | 91° |
| 2026-04-27 17:20 | 60.33500 | 9.63651 | 37874 ft | 476 kts | 88° |
| 2026-04-27 17:20 | 60.33508 | 9.76809 | 37641 ft | 468 kts | 99° |
| 2026-04-27 17:21 | 60.32981 | 9.83283 | 37465 ft | 467 kts | 100° |
| 2026-04-27 17:21 | 60.32480 | 9.89731 | 37412 ft | 462 kts | 98° |
| 2026-04-27 17:21 | 60.32070 | 9.96102 | 37612 ft | 452 kts | 97° |
| 2026-04-27 17:21 | 60.31732 | 10.02303 | 37899 ft | 440 kts | 96° |
| 2026-04-27 17:22 | 60.31145 | 10.14537 | 37726 ft | 436 kts | 96° |
| 2026-04-27 17:22 | 60.30863 | 10.20617 | 37594 ft | 435 kts | 96° |
| 2026-04-27 17:22 | 60.30578 | 10.26692 | 37435 ft | 435 kts | 96° |
| 2026-04-27 17:23 | 60.30289 | 10.32764 | 37319 ft | 434 kts | 96° |
| 2026-04-27 17:23 | 60.30000 | 10.38766 | 37484 ft | 423 kts | 96° |
| 2026-04-27 17:23 | 60.29309 | 10.50072 | 37526 ft | 421 kts | 96° |
| 2026-04-27 17:24 | 60.28650 | 10.61833 | 37570 ft | 424 kts | 89° |
| 2026-04-27 17:24 | 60.28450 | 10.67761 | 37691 ft | 425 kts | 90° |
| 2026-04-27 17:24 | 60.28217 | 10.73722 | 37726 ft | 429 kts | 91° |
| 2026-04-27 17:25 | 60.27642 | 10.85796 | 37796 ft | 437 kts | 91° |
| 2026-04-27 17:25 | 60.26997 | 10.98070 | 37861 ft | 444 kts | 92° |
| 2026-04-27 17:26 | 60.26664 | 11.04245 | 38032 ft | 443 kts | 92° |
| 2026-04-27 17:26 | 60.26330 | 11.10389 | 38280 ft | 440 kts | 92° |
| 2026-04-27 17:26 | 60.25996 | 11.16485 | 38525 ft | 437 kts | 92° |
| 2026-04-27 17:26 | 60.25662 | 11.22553 | 38771 ft | 434 kts | 92° |
| 2026-04-27 17:27 | 60.25328 | 11.28575 | 38960 ft | 433 kts | 92° |
| 2026-04-27 17:27 | 60.24993 | 11.34602 | 39004 ft | 435 kts | 92° |
| 2026-04-27 17:27 | 60.24307 | 11.46783 | 39007 ft | 441 kts | 92° |
| 2026-04-27 17:28 | 60.23598 | 11.59127 | 39013 ft | 447 kts | 92° |
| 2026-04-27 17:29 | 60.22493 | 11.77954 | 39020 ft | 457 kts | 92° |
| 2026-04-27 17:29 | 60.21732 | 11.90644 | 39025 ft | 463 kts | 92° |
| 2026-04-27 17:30 | 60.20942 | 12.03597 | 39028 ft | 470 kts | 93° |
| 2026-04-27 17:30 | 60.19715 | 12.23330 | 39033 ft | 479 kts | 93° |
| 2026-04-27 17:31 | 60.18870 | 12.36672 | 39034 ft | 481 kts | 93° |
| 2026-04-27 17:31 | 60.18020 | 12.49980 | 39035 ft | 481 kts | 93° |
| 2026-04-27 17:32 | 60.16674 | 12.70150 | 39040 ft | 488 kts | 92° |
| 2026-04-27 17:33 | 60.15857 | 12.83731 | 39040 ft | 492 kts | 93° |
| 2026-04-27 17:33 | 60.14993 | 12.97379 | 39043 ft | 494 kts | 93° |
| 2026-04-27 17:34 | 60.14096 | 13.11051 | 39100 ft | 494 kts | 94° |
| 2026-04-27 17:34 | 60.13477 | 13.24663 | 39048 ft | 485 kts | 98° |
| 2026-04-27 17:35 | 60.12400 | 13.37884 | 39000 ft | 474 kts | 100° |
| 2026-04-27 17:35 | 60.11407 | 13.50692 | 39000 ft | 462 kts | 98° |